sensor_id;sensor_type;location;lat;lon;timestamp;P1;durP1;ratioP1;P2;durP2;ratioP2
26042;SDS011;13818;52.156;5.382;2023-05-10T00:02:07;37.10;;;13.32;;
26042;SDS011;13818;52.156;5.382;2023-05-10T00:04:33;34.25;;;13.38;;
26042;SDS011;13818;52.156;5.382;2023-05-10T00:07:00;40.58;;;14.48;;
26042;SDS011;13818;52.156;5.382;2023-05-10T00:09:26;39.10;;;13.48;;
26042;SDS011;13818;52.156;5.382;2023-05-10T00:11:53;41.92;;;13.77;;
26042;SDS011;13818;52.156;5.382;2023-05-10T00:14:19;38.97;;;13.32;;
26042;SDS011;13818;52.156;5.382;2023-05-10T00:16:47;35.53;;;12.60;;
26042;SDS011;13818;52.156;5.382;2023-05-10T00:19:14;39.97;;;13.77;;
26042;SDS011;13818;52.156;5.382;2023-05-10T00:21:40;38.78;;;13.02;;
26042;SDS011;13818;52.156;5.382;2023-05-10T00:24:07;42.15;;;14.38;;
26042;SDS011;13818;52.156;5.382;2023-05-10T00:26:33;37.92;;;13.70;;
26042;SDS011;13818;52.156;5.382;2023-05-10T00:29:02;40.53;;;13.85;;
26042;SDS011;13818;52.156;5.382;2023-05-10T00:31:28;43.43;;;14.10;;
26042;SDS011;13818;52.156;5.382;2023-05-10T00:33:56;43.35;;;14.48;;
26042;SDS011;13818;52.156;5.382;2023-05-10T00:36:22;46.97;;;14.45;;
26042;SDS011;13818;52.156;5.382;2023-05-10T00:38:51;39.15;;;14.35;;
26042;SDS011;13818;52.156;5.382;2023-05-10T00:41:17;46.03;;;15.40;;
26042;SDS011;13818;52.156;5.382;2023-05-10T00:43:46;46.65;;;16.48;;
26042;SDS011;13818;52.156;5.382;2023-05-10T00:46:13;49.25;;;15.88;;
26042;SDS011;13818;52.156;5.382;2023-05-10T00:48:41;54.42;;;18.42;;
26042;SDS011;13818;52.156;5.382;2023-05-10T00:51:09;47.60;;;16.63;;
26042;SDS011;13818;52.156;5.382;2023-05-10T00:53:36;59.80;;;18.65;;
26042;SDS011;13818;52.156;5.382;2023-05-10T00:56:03;50.65;;;18.00;;
26042;SDS011;13818;52.156;5.382;2023-05-10T00:58:30;59.05;;;19.92;;
26042;SDS011;13818;52.156;5.382;2023-05-10T01:00:57;60.42;;;19.30;;
26042;SDS011;13818;52.156;5.382;2023-05-10T01:03:25;54.40;;;18.30;;
26042;SDS011;13818;52.156;5.382;2023-05-10T01:05:52;56.05;;;19.73;;
26042;SDS011;13818;52.156;5.382;2023-05-10T01:08:20;61.17;;;20.10;;
26042;SDS011;13818;52.156;5.382;2023-05-10T01:10:46;62.15;;;22.05;;
26042;SDS011;13818;52.156;5.382;2023-05-10T01:13:14;69.20;;;21.85;;
26042;SDS011;13818;52.156;5.382;2023-05-10T01:16:00;70.80;;;22.48;;
26042;SDS011;13818;52.156;5.382;2023-05-10T01:18:28;65.05;;;21.13;;
26042;SDS011;13818;52.156;5.382;2023-05-10T01:20:57;70.28;;;22.30;;
26042;SDS011;13818;52.156;5.382;2023-05-10T01:23:40;63.25;;;22.13;;
26042;SDS011;13818;52.156;5.382;2023-05-10T01:26:26;67.90;;;20.83;;
26042;SDS011;13818;52.156;5.382;2023-05-10T01:32:17;68.68;;;23.63;;
26042;SDS011;13818;52.156;5.382;2023-05-10T01:35:02;64.93;;;20.55;;
26042;SDS011;13818;52.156;5.382;2023-05-10T01:37:35;63.70;;;20.40;;
26042;SDS011;13818;52.156;5.382;2023-05-10T01:40:08;64.75;;;20.67;;
26042;SDS011;13818;52.156;5.382;2023-05-10T01:42:43;72.80;;;21.92;;
26042;SDS011;13818;52.156;5.382;2023-05-10T01:45:15;65.18;;;22.15;;
26042;SDS011;13818;52.156;5.382;2023-05-10T01:47:48;71.20;;;21.80;;
26042;SDS011;13818;52.156;5.382;2023-05-10T01:50:19;72.40;;;22.40;;
26042;SDS011;13818;52.156;5.382;2023-05-10T01:52:52;67.53;;;22.73;;
26042;SDS011;13818;52.156;5.382;2023-05-10T01:55:21;69.10;;;21.38;;
26042;SDS011;13818;52.156;5.382;2023-05-10T01:57:52;76.20;;;20.08;;
26042;SDS011;13818;52.156;5.382;2023-05-10T02:00:25;66.97;;;21.58;;
26042;SDS011;13818;52.156;5.382;2023-05-10T02:02:54;76.78;;;21.88;;
26042;SDS011;13818;52.156;5.382;2023-05-10T02:05:21;74.65;;;22.70;;
26042;SDS011;13818;52.156;5.382;2023-05-10T02:07:50;76.45;;;22.45;;
26042;SDS011;13818;52.156;5.382;2023-05-10T02:10:18;61.50;;;20.48;;
26042;SDS011;13818;52.156;5.382;2023-05-10T02:12:47;66.93;;;21.48;;
26042;SDS011;13818;52.156;5.382;2023-05-10T02:15:16;73.95;;;20.63;;
26042;SDS011;13818;52.156;5.382;2023-05-10T02:17:46;66.80;;;20.15;;
26042;SDS011;13818;52.156;5.382;2023-05-10T02:20:14;65.25;;;21.00;;
26042;SDS011;13818;52.156;5.382;2023-05-10T02:22:44;71.68;;;21.60;;
26042;SDS011;13818;52.156;5.382;2023-05-10T02:25:13;73.43;;;20.92;;
26042;SDS011;13818;52.156;5.382;2023-05-10T02:27:41;65.85;;;20.42;;
26042;SDS011;13818;52.156;5.382;2023-05-10T02:30:09;67.45;;;21.98;;
26042;SDS011;13818;52.156;5.382;2023-05-10T02:32:37;71.05;;;22.35;;
26042;SDS011;13818;52.156;5.382;2023-05-10T02:35:05;65.82;;;22.42;;
26042;SDS011;13818;52.156;5.382;2023-05-10T02:37:34;73.30;;;22.37;;
26042;SDS011;13818;52.156;5.382;2023-05-10T02:40:03;71.90;;;21.85;;
26042;SDS011;13818;52.156;5.382;2023-05-10T02:42:32;69.45;;;21.40;;
26042;SDS011;13818;52.156;5.382;2023-05-10T02:45:02;80.18;;;23.63;;
26042;SDS011;13818;52.156;5.382;2023-05-10T02:47:33;67.63;;;21.77;;
26042;SDS011;13818;52.156;5.382;2023-05-10T02:50:00;69.90;;;21.70;;
26042;SDS011;13818;52.156;5.382;2023-05-10T02:52:29;74.82;;;23.10;;
26042;SDS011;13818;52.156;5.382;2023-05-10T02:55:04;66.53;;;20.40;;
26042;SDS011;13818;52.156;5.382;2023-05-10T02:57:32;70.15;;;20.77;;
26042;SDS011;13818;52.156;5.382;2023-05-10T03:00:00;72.88;;;23.52;;
26042;SDS011;13818;52.156;5.382;2023-05-10T03:02:28;73.50;;;21.50;;
26042;SDS011;13818;52.156;5.382;2023-05-10T03:04:55;77.53;;;22.48;;
26042;SDS011;13818;52.156;5.382;2023-05-10T03:07:22;79.43;;;21.40;;
26042;SDS011;13818;52.156;5.382;2023-05-10T03:09:49;78.57;;;21.33;;
26042;SDS011;13818;52.156;5.382;2023-05-10T03:12:19;83.40;;;23.30;;
26042;SDS011;13818;52.156;5.382;2023-05-10T03:15:00;84.72;;;22.50;;
26042;SDS011;13818;52.156;5.382;2023-05-10T03:17:39;94.90;;;23.15;;
26042;SDS011;13818;52.156;5.382;2023-05-10T03:20:12;84.63;;;22.13;;
26042;SDS011;13818;52.156;5.382;2023-05-10T03:22:47;81.63;;;20.55;;
26042;SDS011;13818;52.156;5.382;2023-05-10T03:25:17;80.03;;;21.55;;
26042;SDS011;13818;52.156;5.382;2023-05-10T03:27:48;86.55;;;22.48;;
26042;SDS011;13818;52.156;5.382;2023-05-10T03:30:15;93.88;;;21.98;;
26042;SDS011;13818;52.156;5.382;2023-05-10T03:32:43;88.43;;;21.88;;
26042;SDS011;13818;52.156;5.382;2023-05-10T03:35:09;90.50;;;21.80;;
26042;SDS011;13818;52.156;5.382;2023-05-10T03:37:38;94.07;;;22.30;;
26042;SDS011;13818;52.156;5.382;2023-05-10T03:40:05;89.88;;;22.92;;
26042;SDS011;13818;52.156;5.382;2023-05-10T03:42:32;92.15;;;23.65;;
26042;SDS011;13818;52.156;5.382;2023-05-10T03:45:00;87.63;;;22.10;;
26042;SDS011;13818;52.156;5.382;2023-05-10T03:47:27;90.55;;;23.63;;
26042;SDS011;13818;52.156;5.382;2023-05-10T03:49:54;90.28;;;24.17;;
26042;SDS011;13818;52.156;5.382;2023-05-10T03:52:21;84.53;;;22.98;;
26042;SDS011;13818;52.156;5.382;2023-05-10T03:54:47;91.53;;;23.58;;
26042;SDS011;13818;52.156;5.382;2023-05-10T03:57:14;91.72;;;24.50;;
26042;SDS011;13818;52.156;5.382;2023-05-10T03:59:40;109.15;;;25.48;;
26042;SDS011;13818;52.156;5.382;2023-05-10T04:02:08;89.43;;;23.00;;
26042;SDS011;13818;52.156;5.382;2023-05-10T04:04:34;96.50;;;24.33;;
26042;SDS011;13818;52.156;5.382;2023-05-10T04:07:01;90.60;;;22.98;;
26042;SDS011;13818;52.156;5.382;2023-05-10T04:09:27;101.05;;;25.33;;
26042;SDS011;13818;52.156;5.382;2023-05-10T04:11:54;90.93;;;26.23;;
26042;SDS011;13818;52.156;5.382;2023-05-10T04:14:20;104.18;;;24.65;;
26042;SDS011;13818;52.156;5.382;2023-05-10T04:16:47;96.22;;;23.92;;
26042;SDS011;13818;52.156;5.382;2023-05-10T04:19:15;99.95;;;25.80;;
26042;SDS011;13818;52.156;5.382;2023-05-10T04:21:42;95.95;;;24.67;;
26042;SDS011;13818;52.156;5.382;2023-05-10T04:24:08;105.57;;;26.45;;
26042;SDS011;13818;52.156;5.382;2023-05-10T04:26:35;89.72;;;25.70;;
26042;SDS011;13818;52.156;5.382;2023-05-10T04:29:02;96.85;;;24.92;;
26042;SDS011;13818;52.156;5.382;2023-05-10T04:31:28;93.20;;;22.85;;
26042;SDS011;13818;52.156;5.382;2023-05-10T04:33:55;96.38;;;25.20;;
26042;SDS011;13818;52.156;5.382;2023-05-10T04:36:23;105.78;;;24.30;;
26042;SDS011;13818;52.156;5.382;2023-05-10T04:38:49;100.63;;;24.83;;
26042;SDS011;13818;52.156;5.382;2023-05-10T04:41:16;94.50;;;23.65;;
26042;SDS011;13818;52.156;5.382;2023-05-10T04:43:42;112.53;;;23.95;;
26042;SDS011;13818;52.156;5.382;2023-05-10T04:46:08;105.75;;;26.13;;
26042;SDS011;13818;52.156;5.382;2023-05-10T04:48:35;99.07;;;26.45;;
26042;SDS011;13818;52.156;5.382;2023-05-10T04:51:01;95.50;;;24.88;;
26042;SDS011;13818;52.156;5.382;2023-05-10T04:53:30;96.43;;;26.25;;
26042;SDS011;13818;52.156;5.382;2023-05-10T04:55:57;93.72;;;24.70;;
26042;SDS011;13818;52.156;5.382;2023-05-10T04:58:23;94.63;;;25.17;;
26042;SDS011;13818;52.156;5.382;2023-05-10T05:00:50;89.20;;;24.35;;
26042;SDS011;13818;52.156;5.382;2023-05-10T05:03:16;86.90;;;24.10;;
26042;SDS011;13818;52.156;5.382;2023-05-10T05:05:43;80.13;;;24.33;;
26042;SDS011;13818;52.156;5.382;2023-05-10T05:08:09;87.80;;;25.30;;
26042;SDS011;13818;52.156;5.382;2023-05-10T05:10:39;85.50;;;24.35;;
26042;SDS011;13818;52.156;5.382;2023-05-10T05:13:06;82.97;;;24.83;;
26042;SDS011;13818;52.156;5.382;2023-05-10T05:15:32;76.70;;;22.85;;
26042;SDS011;13818;52.156;5.382;2023-05-10T05:18:00;85.03;;;24.35;;
26042;SDS011;13818;52.156;5.382;2023-05-10T05:20:26;85.60;;;24.55;;
26042;SDS011;13818;52.156;5.382;2023-05-10T05:22:53;95.03;;;25.27;;
26042;SDS011;13818;52.156;5.382;2023-05-10T05:25:19;89.03;;;23.73;;
26042;SDS011;13818;52.156;5.382;2023-05-10T05:27:47;94.00;;;23.70;;
26042;SDS011;13818;52.156;5.382;2023-05-10T05:30:14;83.97;;;24.23;;
26042;SDS011;13818;52.156;5.382;2023-05-10T05:32:40;82.30;;;23.80;;
26042;SDS011;13818;52.156;5.382;2023-05-10T05:35:07;92.63;;;25.35;;
26042;SDS011;13818;52.156;5.382;2023-05-10T05:37:34;94.70;;;24.98;;
26042;SDS011;13818;52.156;5.382;2023-05-10T05:40:02;91.78;;;25.40;;
26042;SDS011;13818;52.156;5.382;2023-05-10T05:42:29;89.10;;;24.58;;
26042;SDS011;13818;52.156;5.382;2023-05-10T05:44:59;89.60;;;23.87;;
26042;SDS011;13818;52.156;5.382;2023-05-10T05:47:26;83.93;;;24.00;;
26042;SDS011;13818;52.156;5.382;2023-05-10T05:49:52;67.10;;;19.95;;
26042;SDS011;13818;52.156;5.382;2023-05-10T05:52:20;82.05;;;22.63;;
26042;SDS011;13818;52.156;5.382;2023-05-10T05:54:47;78.65;;;21.92;;
26042;SDS011;13818;52.156;5.382;2023-05-10T05:57:13;71.40;;;20.25;;
26042;SDS011;13818;52.156;5.382;2023-05-10T05:59:40;75.60;;;21.92;;
26042;SDS011;13818;52.156;5.382;2023-05-10T06:02:10;65.70;;;19.80;;
26042;SDS011;13818;52.156;5.382;2023-05-10T06:04:37;67.68;;;20.23;;
26042;SDS011;13818;52.156;5.382;2023-05-10T06:07:03;66.13;;;21.55;;
26042;SDS011;13818;52.156;5.382;2023-05-10T06:09:31;74.03;;;22.38;;
26042;SDS011;13818;52.156;5.382;2023-05-10T06:11:57;65.65;;;20.90;;
26042;SDS011;13818;52.156;5.382;2023-05-10T06:14:24;72.18;;;20.40;;
26042;SDS011;13818;52.156;5.382;2023-05-10T06:16:50;62.63;;;17.85;;
26042;SDS011;13818;52.156;5.382;2023-05-10T06:19:18;59.67;;;18.67;;
26042;SDS011;13818;52.156;5.382;2023-05-10T06:21:45;57.13;;;16.55;;
26042;SDS011;13818;52.156;5.382;2023-05-10T06:24:11;46.45;;;16.17;;
26042;SDS011;13818;52.156;5.382;2023-05-10T06:26:37;56.78;;;19.35;;
26042;SDS011;13818;52.156;5.382;2023-05-10T06:29:04;50.83;;;15.93;;
26042;SDS011;13818;52.156;5.382;2023-05-10T06:31:30;50.95;;;15.27;;
26042;SDS011;13818;52.156;5.382;2023-05-10T06:33:57;44.20;;;14.38;;
26042;SDS011;13818;52.156;5.382;2023-05-10T06:36:25;43.85;;;13.52;;
26042;SDS011;13818;52.156;5.382;2023-05-10T06:38:52;45.88;;;14.05;;
26042;SDS011;13818;52.156;5.382;2023-05-10T06:41:19;45.20;;;15.00;;
26042;SDS011;13818;52.156;5.382;2023-05-10T06:43:46;43.42;;;12.60;;
26042;SDS011;13818;52.156;5.382;2023-05-10T06:46:12;36.53;;;12.68;;
26042;SDS011;13818;52.156;5.382;2023-05-10T06:48:39;31.90;;;11.23;;
26042;SDS011;13818;52.156;5.382;2023-05-10T06:51:05;35.78;;;11.48;;
26042;SDS011;13818;52.156;5.382;2023-05-10T06:53:33;29.92;;;11.13;;
26042;SDS011;13818;52.156;5.382;2023-05-10T06:55:59;30.30;;;9.68;;
26042;SDS011;13818;52.156;5.382;2023-05-10T06:58:26;29.27;;;10.30;;
26042;SDS011;13818;52.156;5.382;2023-05-10T07:00:52;27.02;;;9.82;;
26042;SDS011;13818;52.156;5.382;2023-05-10T07:03:19;24.55;;;9.07;;
26042;SDS011;13818;52.156;5.382;2023-05-10T07:05:45;24.00;;;9.65;;
26042;SDS011;13818;52.156;5.382;2023-05-10T07:08:12;29.95;;;10.00;;
26042;SDS011;13818;52.156;5.382;2023-05-10T07:10:40;29.15;;;9.55;;
26042;SDS011;13818;52.156;5.382;2023-05-10T07:13:08;20.98;;;8.20;;
26042;SDS011;13818;52.156;5.382;2023-05-10T07:15:35;23.02;;;8.52;;
26042;SDS011;13818;52.156;5.382;2023-05-10T07:18:02;22.35;;;8.82;;
26042;SDS011;13818;52.156;5.382;2023-05-10T07:20:30;26.67;;;8.33;;
26042;SDS011;13818;52.156;5.382;2023-05-10T07:22:57;21.92;;;8.15;;
26042;SDS011;13818;52.156;5.382;2023-05-10T07:25:23;20.70;;;7.72;;
26042;SDS011;13818;52.156;5.382;2023-05-10T07:27:51;20.73;;;7.38;;
26042;SDS011;13818;52.156;5.382;2023-05-10T07:30:17;24.00;;;7.90;;
26042;SDS011;13818;52.156;5.382;2023-05-10T07:32:44;26.02;;;8.70;;
26042;SDS011;13818;52.156;5.382;2023-05-10T07:35:11;22.00;;;8.85;;
26042;SDS011;13818;52.156;5.382;2023-05-10T07:37:37;21.45;;;8.23;;
26042;SDS011;13818;52.156;5.382;2023-05-10T07:40:04;25.50;;;9.40;;
26042;SDS011;13818;52.156;5.382;2023-05-10T07:42:32;25.17;;;7.88;;
26042;SDS011;13818;52.156;5.382;2023-05-10T07:45:02;26.25;;;9.90;;
26042;SDS011;13818;52.156;5.382;2023-05-10T07:47:29;25.98;;;8.90;;
26042;SDS011;13818;52.156;5.382;2023-05-10T07:49:56;20.83;;;8.13;;
26042;SDS011;13818;52.156;5.382;2023-05-10T07:52:22;19.65;;;8.23;;
26042;SDS011;13818;52.156;5.382;2023-05-10T07:54:49;16.33;;;6.65;;
26042;SDS011;13818;52.156;5.382;2023-05-10T07:57:15;22.45;;;7.82;;
26042;SDS011;13818;52.156;5.382;2023-05-10T07:59:43;22.65;;;7.03;;
26042;SDS011;13818;52.156;5.382;2023-05-10T08:02:12;19.48;;;7.15;;
26042;SDS011;13818;52.156;5.382;2023-05-10T08:04:38;20.13;;;6.90;;
26042;SDS011;13818;52.156;5.382;2023-05-10T08:07:05;20.67;;;8.70;;
26042;SDS011;13818;52.156;5.382;2023-05-10T08:09:31;20.02;;;8.27;;
26042;SDS011;13818;52.156;5.382;2023-05-10T08:11:58;17.50;;;7.53;;
26042;SDS011;13818;52.156;5.382;2023-05-10T08:14:25;21.58;;;8.25;;
26042;SDS011;13818;52.156;5.382;2023-05-10T08:16:51;20.95;;;8.20;;
26042;SDS011;13818;52.156;5.382;2023-05-10T08:19:19;23.77;;;8.48;;
26042;SDS011;13818;52.156;5.382;2023-05-10T08:21:46;20.05;;;7.85;;
26042;SDS011;13818;52.156;5.382;2023-05-10T08:24:13;22.40;;;9.73;;
26042;SDS011;13818;52.156;5.382;2023-05-10T08:26:39;22.02;;;9.07;;
26042;SDS011;13818;52.156;5.382;2023-05-10T08:29:06;22.80;;;8.80;;
26042;SDS011;13818;52.156;5.382;2023-05-10T08:31:32;18.50;;;7.95;;
26042;SDS011;13818;52.156;5.382;2023-05-10T08:33:59;21.38;;;9.55;;
26042;SDS011;13818;52.156;5.382;2023-05-10T08:36:27;23.92;;;9.48;;
26042;SDS011;13818;52.156;5.382;2023-05-10T08:38:54;22.35;;;9.05;;
26042;SDS011;13818;52.156;5.382;2023-05-10T08:41:20;20.77;;;9.00;;
26042;SDS011;13818;52.156;5.382;2023-05-10T08:43:49;22.52;;;9.35;;
26042;SDS011;13818;52.156;5.382;2023-05-10T08:46:17;22.75;;;8.93;;
26042;SDS011;13818;52.156;5.382;2023-05-10T08:48:45;21.20;;;8.73;;
26042;SDS011;13818;52.156;5.382;2023-05-10T08:51:12;18.85;;;8.80;;
26042;SDS011;13818;52.156;5.382;2023-05-10T08:56:09;20.55;;;9.30;;
26042;SDS011;13818;52.156;5.382;2023-05-10T08:58:36;20.33;;;8.38;;
26042;SDS011;13818;52.156;5.382;2023-05-10T09:01:03;20.52;;;8.98;;
26042;SDS011;13818;52.156;5.382;2023-05-10T09:03:31;19.25;;;7.80;;
26042;SDS011;13818;52.156;5.382;2023-05-10T09:05:58;22.95;;;8.68;;
26042;SDS011;13818;52.156;5.382;2023-05-10T09:08:24;15.48;;;7.38;;
26042;SDS011;13818;52.156;5.382;2023-05-10T09:10:53;16.13;;;7.20;;
26042;SDS011;13818;52.156;5.382;2023-05-10T09:13:21;10.35;;;4.25;;
26042;SDS011;13818;52.156;5.382;2023-05-10T09:15:48;8.75;;;3.22;;
26042;SDS011;13818;52.156;5.382;2023-05-10T09:18:15;11.57;;;4.15;;
26042;SDS011;13818;52.156;5.382;2023-05-10T09:20:41;8.25;;;3.38;;
26042;SDS011;13818;52.156;5.382;2023-05-10T09:23:08;5.55;;;2.42;;
26042;SDS011;13818;52.156;5.382;2023-05-10T09:25:34;7.07;;;2.97;;
26042;SDS011;13818;52.156;5.382;2023-05-10T09:28:06;6.43;;;2.75;;
26042;SDS011;13818;52.156;5.382;2023-05-10T09:30:34;5.35;;;2.33;;
26042;SDS011;13818;52.156;5.382;2023-05-10T09:33:01;7.57;;;2.42;;
26042;SDS011;13818;52.156;5.382;2023-05-10T09:35:29;10.48;;;2.25;;
26042;SDS011;13818;52.156;5.382;2023-05-10T09:40:25;6.55;;;2.30;;
26042;SDS011;13818;52.156;5.382;2023-05-10T09:42:53;5.65;;;2.45;;
26042;SDS011;13818;52.156;5.382;2023-05-10T09:45:24;5.18;;;2.70;;
26042;SDS011;13818;52.156;5.382;2023-05-10T09:47:52;6.13;;;2.40;;
26042;SDS011;13818;52.156;5.382;2023-05-10T09:50:19;8.38;;;3.30;;
26042;SDS011;13818;52.156;5.382;2023-05-10T09:52:48;13.70;;;6.60;;
26042;SDS011;13818;52.156;5.382;2023-05-10T09:55:16;8.60;;;3.67;;
26042;SDS011;13818;52.156;5.382;2023-05-10T09:57:43;7.00;;;3.78;;
26042;SDS011;13818;52.156;5.382;2023-05-10T10:00:10;9.40;;;4.00;;
26042;SDS011;13818;52.156;5.382;2023-05-10T10:02:46;9.50;;;3.53;;
26042;SDS011;13818;52.156;5.382;2023-05-10T10:05:14;14.85;;;5.05;;
26042;SDS011;13818;52.156;5.382;2023-05-10T10:07:41;10.45;;;3.92;;
26042;SDS011;13818;52.156;5.382;2023-05-10T10:10:08;10.98;;;4.85;;
26042;SDS011;13818;52.156;5.382;2023-05-10T10:12:37;11.98;;;4.90;;
26042;SDS011;13818;52.156;5.382;2023-05-10T10:15:05;8.88;;;4.30;;
26042;SDS011;13818;52.156;5.382;2023-05-10T10:17:33;10.27;;;4.38;;
26042;SDS011;13818;52.156;5.382;2023-05-10T10:20:03;10.50;;;4.65;;
26042;SDS011;13818;52.156;5.382;2023-05-10T10:22:31;12.00;;;4.22;;
26042;SDS011;13818;52.156;5.382;2023-05-10T10:24:58;9.48;;;4.50;;
26042;SDS011;13818;52.156;5.382;2023-05-10T10:27:26;10.48;;;5.05;;
26042;SDS011;13818;52.156;5.382;2023-05-10T10:30:02;9.48;;;4.25;;
26042;SDS011;13818;52.156;5.382;2023-05-10T10:32:40;7.68;;;4.10;;
26042;SDS011;13818;52.156;5.382;2023-05-10T10:35:19;12.02;;;5.07;;
26042;SDS011;13818;52.156;5.382;2023-05-10T10:37:46;11.47;;;5.17;;
26042;SDS011;13818;52.156;5.382;2023-05-10T10:40:25;11.90;;;5.32;;
26042;SDS011;13818;52.156;5.382;2023-05-10T10:42:53;12.35;;;4.85;;
26042;SDS011;13818;52.156;5.382;2023-05-10T10:45:20;13.05;;;4.75;;
26042;SDS011;13818;52.156;5.382;2023-05-10T10:47:48;10.38;;;4.82;;
26042;SDS011;13818;52.156;5.382;2023-05-10T10:50:14;9.27;;;4.53;;
26042;SDS011;13818;52.156;5.382;2023-05-10T10:52:43;8.60;;;4.47;;
26042;SDS011;13818;52.156;5.382;2023-05-10T10:55:11;9.60;;;4.28;;
26042;SDS011;13818;52.156;5.382;2023-05-10T10:57:48;10.13;;;4.82;;
26042;SDS011;13818;52.156;5.382;2023-05-10T11:00:23;7.10;;;3.70;;
26042;SDS011;13818;52.156;5.382;2023-05-10T11:02:56;13.35;;;4.75;;
26042;SDS011;13818;52.156;5.382;2023-05-10T11:05:25;11.10;;;4.18;;
26042;SDS011;13818;52.156;5.382;2023-05-10T11:08:08;11.20;;;4.45;;
26042;SDS011;13818;52.156;5.382;2023-05-10T11:10:37;8.90;;;4.10;;
26042;SDS011;13818;52.156;5.382;2023-05-10T11:13:04;8.85;;;3.90;;
26042;SDS011;13818;52.156;5.382;2023-05-10T11:15:32;10.57;;;4.18;;
26042;SDS011;13818;52.156;5.382;2023-05-10T11:18:16;8.82;;;3.72;;
26042;SDS011;13818;52.156;5.382;2023-05-10T11:20:55;11.50;;;4.43;;
26042;SDS011;13818;52.156;5.382;2023-05-10T11:23:28;11.73;;;4.40;;
26042;SDS011;13818;52.156;5.382;2023-05-10T11:25:56;9.80;;;3.53;;
26042;SDS011;13818;52.156;5.382;2023-05-10T11:28:24;13.23;;;4.40;;
26042;SDS011;13818;52.156;5.382;2023-05-10T11:30:52;9.80;;;4.10;;
26042;SDS011;13818;52.156;5.382;2023-05-10T11:33:19;11.30;;;3.70;;
26042;SDS011;13818;52.156;5.382;2023-05-10T11:35:46;7.57;;;3.60;;
26042;SDS011;13818;52.156;5.382;2023-05-10T11:38:12;6.47;;;3.45;;
26042;SDS011;13818;52.156;5.382;2023-05-10T11:40:41;6.93;;;3.17;;
26042;SDS011;13818;52.156;5.382;2023-05-10T11:43:09;9.10;;;3.05;;
26042;SDS011;13818;52.156;5.382;2023-05-10T11:45:39;7.65;;;3.30;;
26042;SDS011;13818;52.156;5.382;2023-05-10T11:48:07;6.85;;;3.25;;
26042;SDS011;13818;52.156;5.382;2023-05-10T11:50:33;8.23;;;3.03;;
26042;SDS011;13818;52.156;5.382;2023-05-10T11:53:00;5.82;;;2.85;;
26042;SDS011;13818;52.156;5.382;2023-05-10T11:55:26;6.15;;;3.15;;
26042;SDS011;13818;52.156;5.382;2023-05-10T11:58:01;7.10;;;2.90;;
26042;SDS011;13818;52.156;5.382;2023-05-10T12:00:28;5.43;;;2.60;;
26042;SDS011;13818;52.156;5.382;2023-05-10T12:02:56;5.50;;;2.63;;
26042;SDS011;13818;52.156;5.382;2023-05-10T12:05:22;6.15;;;3.28;;
26042;SDS011;13818;52.156;5.382;2023-05-10T12:07:49;6.80;;;2.90;;
26042;SDS011;13818;52.156;5.382;2023-05-10T12:10:17;7.28;;;2.90;;
26042;SDS011;13818;52.156;5.382;2023-05-10T12:12:52;7.05;;;3.53;;
26042;SDS011;13818;52.156;5.382;2023-05-10T12:15:20;10.32;;;3.60;;
26042;SDS011;13818;52.156;5.382;2023-05-10T12:20:15;13.00;;;4.88;;
26042;SDS011;13818;52.156;5.382;2023-05-10T12:22:46;9.63;;;3.33;;
26042;SDS011;13818;52.156;5.382;2023-05-10T12:25:15;9.25;;;4.28;;
26042;SDS011;13818;52.156;5.382;2023-05-10T12:27:47;9.48;;;3.72;;
26042;SDS011;13818;52.156;5.382;2023-05-10T12:30:19;7.18;;;2.35;;
26042;SDS011;13818;52.156;5.382;2023-05-10T12:32:47;6.43;;;2.90;;
26042;SDS011;13818;52.156;5.382;2023-05-10T12:35:14;8.50;;;2.90;;
26042;SDS011;13818;52.156;5.382;2023-05-10T12:37:41;7.40;;;2.85;;
26042;SDS011;13818;52.156;5.382;2023-05-10T12:40:08;6.63;;;3.10;;
26042;SDS011;13818;52.156;5.382;2023-05-10T12:42:37;8.32;;;2.92;;
26042;SDS011;13818;52.156;5.382;2023-05-10T12:45:05;6.15;;;2.40;;
26042;SDS011;13818;52.156;5.382;2023-05-10T12:47:34;4.70;;;2.15;;
26042;SDS011;13818;52.156;5.382;2023-05-10T12:50:00;4.55;;;1.80;;
26042;SDS011;13818;52.156;5.382;2023-05-10T12:52:27;5.00;;;1.83;;
26042;SDS011;13818;52.156;5.382;2023-05-10T12:54:54;3.65;;;1.75;;
26042;SDS011;13818;52.156;5.382;2023-05-10T12:57:20;5.30;;;1.90;;
26042;SDS011;13818;52.156;5.382;2023-05-10T12:59:47;5.13;;;1.80;;
26042;SDS011;13818;52.156;5.382;2023-05-10T13:02:13;4.03;;;1.50;;
26042;SDS011;13818;52.156;5.382;2023-05-10T13:04:41;5.30;;;1.85;;
26042;SDS011;13818;52.156;5.382;2023-05-10T13:07:08;3.63;;;1.58;;
26042;SDS011;13818;52.156;5.382;2023-05-10T13:09:35;4.18;;;1.73;;
26042;SDS011;13818;52.156;5.382;2023-05-10T13:12:01;5.35;;;1.90;;
26042;SDS011;13818;52.156;5.382;2023-05-10T13:14:28;5.20;;;1.95;;
26042;SDS011;13818;52.156;5.382;2023-05-10T13:16:55;5.05;;;2.28;;
26042;SDS011;13818;52.156;5.382;2023-05-10T13:19:21;4.47;;;1.67;;
26042;SDS011;13818;52.156;5.382;2023-05-10T13:21:49;7.88;;;2.17;;
26042;SDS011;13818;52.156;5.382;2023-05-10T13:24:16;6.00;;;2.55;;
26042;SDS011;13818;52.156;5.382;2023-05-10T13:26:42;9.13;;;3.92;;
26042;SDS011;13818;52.156;5.382;2023-05-10T13:29:09;10.07;;;4.20;;
26042;SDS011;13818;52.156;5.382;2023-05-10T13:31:36;9.82;;;4.43;;
26042;SDS011;13818;52.156;5.382;2023-05-10T13:34:03;12.93;;;4.63;;
26042;SDS011;13818;52.156;5.382;2023-05-10T13:36:31;15.68;;;5.25;;
26042;SDS011;13818;52.156;5.382;2023-05-10T13:38:59;12.38;;;4.68;;
26042;SDS011;13818;52.156;5.382;2023-05-10T13:41:28;10.45;;;4.40;;
26042;SDS011;13818;52.156;5.382;2023-05-10T13:43:54;15.82;;;5.90;;
26042;SDS011;13818;52.156;5.382;2023-05-10T13:46:21;13.18;;;5.07;;
26042;SDS011;13818;52.156;5.382;2023-05-10T13:48:48;14.32;;;5.47;;
26042;SDS011;13818;52.156;5.382;2023-05-10T13:51:14;10.73;;;4.88;;
26042;SDS011;13818;52.156;5.382;2023-05-10T13:53:40;13.98;;;5.80;;
26042;SDS011;13818;52.156;5.382;2023-05-10T13:56:08;14.88;;;5.78;;
26042;SDS011;13818;52.156;5.382;2023-05-10T13:58:35;12.68;;;5.18;;
26042;SDS011;13818;52.156;5.382;2023-05-10T14:01:01;15.23;;;5.75;;
26042;SDS011;13818;52.156;5.382;2023-05-10T14:03:28;12.25;;;4.70;;
26042;SDS011;13818;52.156;5.382;2023-05-10T14:05:54;12.50;;;4.78;;
26042;SDS011;13818;52.156;5.382;2023-05-10T14:08:20;15.70;;;4.78;;
26042;SDS011;13818;52.156;5.382;2023-05-10T14:10:47;15.40;;;6.10;;
26042;SDS011;13818;52.156;5.382;2023-05-10T14:13:15;12.63;;;5.38;;
26042;SDS011;13818;52.156;5.382;2023-05-10T14:15:41;17.67;;;8.18;;
26042;SDS011;13818;52.156;5.382;2023-05-10T14:18:08;16.08;;;6.28;;
26042;SDS011;13818;52.156;5.382;2023-05-10T14:20:34;12.60;;;5.25;;
26042;SDS011;13818;52.156;5.382;2023-05-10T14:23:01;14.13;;;5.13;;
26042;SDS011;13818;52.156;5.382;2023-05-10T14:25:27;13.30;;;5.22;;
26042;SDS011;13818;52.156;5.382;2023-05-10T14:27:54;13.68;;;5.57;;
26042;SDS011;13818;52.156;5.382;2023-05-10T14:30:21;12.73;;;4.97;;
26042;SDS011;13818;52.156;5.382;2023-05-10T14:32:48;12.65;;;5.38;;
26042;SDS011;13818;52.156;5.382;2023-05-10T14:35:14;16.25;;;5.68;;
26042;SDS011;13818;52.156;5.382;2023-05-10T14:37:41;15.80;;;5.32;;
26042;SDS011;13818;52.156;5.382;2023-05-10T14:40:08;13.32;;;5.00;;
26042;SDS011;13818;52.156;5.382;2023-05-10T14:42:35;16.30;;;5.63;;
26042;SDS011;13818;52.156;5.382;2023-05-10T14:45:01;17.58;;;4.90;;
26042;SDS011;13818;52.156;5.382;2023-05-10T14:47:30;11.90;;;5.10;;